Flight Track Log - Related Links

Times and Time Zones

All times are in EDT time to prevent confusion due to time zone crossing. See the N75ZM flight status page for this flight to view local times or setup timezone preferences in your user account.

Time Position Orientation Groundspeed Altitude Reporting Facility
EDT Latitude Longitude Course Direction KTS MPH feet Rate Location/Type
Tue 09:11:00 PM 34.2500 -78.2012 270° West  Level FlightAware Approximate
Tue 09:12:00 PM 34.2500 -78.2516 270° West  Level FlightAware Approximate
Tue 09:13:00 PM 34.2483 -78.3019 264° West  Level FlightAware Approximate
Tue 09:14:00 PM 34.2438 -78.3520 264° West  Level FlightAware Approximate
Tue 09:15:00 PM 34.2392 -78.4020 264° West  Level FlightAware Approximate
Tue 09:16:00 PM 34.2347 -78.4521 264° West  Level FlightAware Approximate
Tue 09:17:00 PM 34.2324 -78.5024 268° West  Level FlightAware Approximate
Tue 09:18:00 PM 34.2311 -78.5527 268° West  Level FlightAware Approximate
Tue 09:19:00 PM 34.2298 -78.6031 268° West  Level FlightAware Approximate
Tue 09:20:00 PM 34.2285 -78.6534 268° West  Level FlightAware Approximate
Tue 09:21:00 PM 34.2271 -78.7038 268° West  Level FlightAware Approximate
Tue 09:22:00 PM 34.2257 -78.7541 268° West  Level FlightAware Approximate
Tue 09:23:00 PM 34.2243 -78.8045 268° West  Level FlightAware Approximate
Tue 09:24:00 PM 34.2229 -78.8548 268° West  Level FlightAware Approximate
Tue 09:25:00 PM 34.2214 -78.9051 268° West  Level FlightAware Approximate
Tue 09:26:00 PM 34.2200 -78.9555 268° West  Level FlightAware Approximate
Tue 09:27:00 PM 34.2185 -79.0058 268° West  Level FlightAware Approximate
Tue 09:28:00 PM 34.2170 -79.0561 268° West  Level FlightAware Approximate
Tue 09:29:00 PM 34.2148 -79.1064 267° West  Level FlightAware Approximate
Tue 09:30:00 PM 34.2124 -79.1567 267° West  Level FlightAware Approximate
Tue 09:31:00 PM 34.2100 -79.2070 267° West  Level FlightAware Approximate
Tue 09:32:00 PM 34.2076 -79.2572 267° West  Level FlightAware Approximate
Tue 09:33:00 PM 34.2052 -79.3075 267° West  Level FlightAware Approximate
Tue 09:34:00 PM 34.2027 -79.3578 267° West  Level FlightAware Approximate
Tue 09:35:00 PM 34.2002 -79.4081 267° West  Level FlightAware Approximate
Tue 09:36:00 PM 34.1977 -79.4583 267° West  Level FlightAware Approximate
Tue 09:37:00 PM 34.1952 -79.5086 267° West  Level FlightAware Approximate
Tue 09:38:00 PM 34.1926 -79.5588 267° West  Level FlightAware Approximate
Tue 09:39:00 PM 34.1901 -79.6091 266° West  Level FlightAware Approximate
Tue 09:40:00 PM 34.1875 -79.6593 266° West  Level FlightAware Approximate
Tue 09:41:00 PM 34.1849 -79.7096 266° West  Level FlightAware Approximate
Tue 09:42:00 PM 34.1822 -79.7598 266° West  Level FlightAware Approximate
Tue 09:43:00 PM 34.1796 -79.8101 266° West  Level FlightAware Approximate
Tue 09:44:00 PM 34.1769 -79.8603 266° West  Level FlightAware Approximate
Tue 09:45:00 PM 34.1742 -79.9105 266° West  Level FlightAware Approximate
Tue 09:46:00 PM 34.1715 -79.9608 266° West  Level FlightAware Approximate
Tue 09:47:00 PM 34.1688 -80.0110 266° West  Level FlightAware Approximate
Tue 09:48:00 PM 34.1660 -80.0612 266° West  Level FlightAware Approximate
Tue 09:49:00 PM 34.1629 -80.1114 266° West  Level FlightAware Approximate
Tue 09:50:00 PM 34.1599 -80.1616 266° West  Level FlightAware Approximate
Tue 09:51:00 PM 34.1567 -80.2118 266° West  Level FlightAware Approximate
Tue 09:52:00 PM 34.1536 -80.2620 266° West  Level FlightAware Approximate
Tue 09:53:00 PM 34.1505 -80.3122 266° West  Level FlightAware Approximate
Tue 09:54:00 PM 34.1473 -80.3624 266° West  Level FlightAware Approximate
Tue 09:55:00 PM 34.1441 -80.4125 266° West  Level FlightAware Approximate
Tue 09:56:00 PM 34.1409 -80.4627 266° West  Level FlightAware Approximate
Tue 09:57:00 PM 34.1377 -80.5129 266° West  Level FlightAware Approximate
Tue 09:58:00 PM 34.1345 -80.5630 266° West  Level FlightAware Approximate
Tue 09:59:00 PM 34.1312 -80.6132 266° West  Level FlightAware Approximate
Tue 10:00:00 PM 34.1279 -80.6634 265° West  Level FlightAware Approximate
Tue 10:01:00 PM 34.1246 -80.7135 265° West  Level FlightAware Approximate
Tue 10:02:00 PM 34.1213 -80.7636 265° West  Level FlightAware Approximate
Tue 10:03:00 PM 34.1180 -80.8138 265° West  Level FlightAware Approximate
Tue 10:04:00 PM 34.1148 -80.8640 266° West  Level FlightAware Approximate
Tue 10:05:00 PM 34.1118 -80.9141 266° West  Level FlightAware Approximate
Tue 10:06:00 PM 34.1087 -80.9643 266° West  Level FlightAware Approximate
Tue 10:07:00 PM 34.1056 -81.0144 266° West  Level FlightAware Approximate
Tue 10:08:00 PM 34.1025 -81.0646 266° West  Level FlightAware Approximate
Tue 10:09:00 PM 34.0994 -81.1148 266° West  Level FlightAware Approximate
Tue 10:10:00 PM 34.0962 -81.1649 266° West  Level FlightAware Approximate
Tue 10:11:00 PM 34.0930 -81.2150 266° West  Level FlightAware Approximate
Tue 10:12:00 PM 34.0899 -81.2652 266° West  Level FlightAware Approximate
Tue 10:13:00 PM 34.0867 -81.3153 266° West  Level FlightAware Approximate
Tue 10:14:00 PM 34.0834 -81.3655 266° West  Level FlightAware Approximate
Tue 10:15:00 PM 34.0802 -81.4156 266° West  Level FlightAware Approximate
Tue 10:16:00 PM 34.0769 -81.4657 266° West  Level FlightAware Approximate
Tue 10:17:00 PM 34.0736 -81.5158 265° West  Level FlightAware Approximate
Tue 10:18:00 PM 34.0703 -81.5660 265° West  Level FlightAware Approximate
Tue 10:19:00 PM 34.0670 -81.6161 265° West  Level FlightAware Approximate
Tue 10:20:00 PM 34.0636 -81.6662 265° West  Level FlightAware Approximate
Tue 10:21:00 PM 34.0602 -81.7163 265° West  Level FlightAware Approximate
Tue 10:22:00 PM 34.0569 -81.7664 265° West  Level FlightAware Approximate
Tue 10:23:00 PM 34.0534 -81.8165 265° West  Level FlightAware Approximate
Tue 10:24:00 PM 34.0500 -81.8666 265° West  Level FlightAware Approximate
Tue 10:25:00 PM 34.0467 -81.9167 265° West  Level FlightAware Approximate
Tue 10:26:00 PM 34.0433 -81.9668 265° West  Level FlightAware Approximate
Tue 10:27:00 PM 34.0400 -82.0169 265° West  Level FlightAware Approximate
Tue 10:28:00 PM 34.0366 -82.0670 265° West  Level FlightAware Approximate
Tue 10:29:00 PM 34.0249 -82.1155 254° West  Level FlightAware Approximate
Tue 10:30:00 PM 33.9844 -82.1267 193° South  Level FlightAware Approximate
Tue 10:31:00 PM 33.9823 -82.1768 270° West  Level Estimated
Tue 10:32:00 PM 33.9765 -82.2265 262° West  Level FlightAware Approximate
Tue 10:33:00 PM 33.9707 -82.2762 262° West  Level FlightAware Approximate
Tue 10:34:00 PM 33.9649 -82.3259 262° West  Level FlightAware Approximate
Tue 10:35:00 PM 33.9590 -82.3755 262° West  Level FlightAware Approximate
Tue 10:36:00 PM 33.9531 -82.4252 262° West  Level FlightAware Approximate
Tue 10:37:00 PM 33.9473 -82.4748 262° West  Level FlightAware Approximate
Tue 10:38:00 PM 33.9413 -82.5245 262° West  Level FlightAware Approximate
Tue 10:39:00 PM 33.9354 -82.5741 262° West  Level FlightAware Approximate
Tue 10:40:00 PM 33.9295 -82.6237 262° West  Level FlightAware Approximate
Tue 10:41:00 PM 33.9235 -82.6734 262° West  Level FlightAware Approximate
Tue 10:42:00 PM 33.9175 -82.7230 262° West  Level FlightAware Approximate
Tue 10:42:09 PM 33.9906 -82.8061 265° West 171 197 8,000  Level Atlanta Center
Tue 10:43:00 PM 33.9115 -82.7726 262° West  Level FlightAware Approximate
Tue 10:43:09 PM 33.9869 -82.8589 265° West 166 191 8,000  Level Atlanta Center
Tue 10:44:00 PM 33.9054 -82.8222 262° West  Level FlightAware Approximate
Tue 10:44:09 PM 33.9811 -82.9114 262° West 166 191 8,100  Level Atlanta Center
Tue 10:45:00 PM 33.9047 -82.8723 266° West  Level Estimated
Tue 10:45:09 PM 33.9794 -82.9667 268° West 161 185 8,100  Level Atlanta Center
Tue 10:46:00 PM 33.9011 -82.9223 265° West  Level FlightAware Approximate
Tue 10:46:09 PM 33.9758 -83.0217 265° West 161 185 8,100  Level Atlanta Center
Tue 10:47:00 PM 33.8975 -82.9722 265° West  Level FlightAware Approximate
Tue 10:47:09 PM 33.9678 -83.0744 260° West 161 185 8,100  Level Atlanta Center
Tue 10:48:09 PM 33.9661 -83.1294 268° West 161 185 8,100  Level Atlanta Center
Tue 10:49:09 PM 33.9625 -83.1822 265° West 161 185 8,100  Level Atlanta Center
Tue 10:50:09 PM 33.9564 -83.2375 262° West 166 191 8,100 -100 Level Atlanta Center
Tue 10:51:09 PM 33.9547 -83.2900 268° West 166 191 7,900 -300 Descending Atlanta Center
Tue 10:52:09 PM 33.9489 -83.3503 263° West 166 191 7,500 -450 Descending Atlanta Center
Tue 10:53:09 PM 33.9450 -83.4078 265° West 171 197 7,000 -500 Descending Atlanta Center
Tue 10:54:09 PM 33.9411 -83.4678 266° West 177 204 6,500 -397 Descending Atlanta Center
Tue 10:55:10 PM 33.9372 -83.5206 265° West 182 209 6,200 -150 Descending Atlanta Center
Tue 10:56:09 PM 33.9333 -83.5781 265° West 182 209 6,200  Level Atlanta Center
Tue 10:57:09 PM 33.9292 -83.6333 265° West 176 203 6,200  Level Atlanta Center
Tue 10:58:09 PM 33.9253 -83.6883 265° West 171 197 6,200  Level Atlanta Center
Tue 10:59:09 PM 33.9211 -83.7408 265° West 171 197 6,200 -200 Level Atlanta Center
Tue 11:00:09 PM 33.9172 -83.7986 265° West 171 197 5,800 -400 Descending Atlanta Center
Tue 11:01:09 PM 33.9131 -83.8561 265° West 171 197 5,400 -509 Descending Atlanta Center
Tue 11:01:55 PM 33.9167 -83.9000 276° West 180 207 4,900 -468 Descending Atlanta TRACON
Tue 11:03:43 PM 33.9000 -84.0000 259° West 171 197 4,200 -389 Descending Atlanta TRACON

Login

Don't have an account? Register now (free) for customized features, flight alerts, and more!